Time;durP1;ratioP1;P1;durP2;ratioP2;P2;SDS_P1;SDS_P2;PMS_P1;PMS_P2;Temp;Humidity;BMP_temperature;BMP_pressure;BME280_temperature;BME280_humidity;BME280_pressure;Samples;Min_cycle;Max_cycle;Signal;HPM_P1;HPM_P2
2023/10/25 00:01:28;;;;;;;;;;;11.50;99.90;;;;;;4142351;28;20084;-74
2023/10/25 00:03:29;;;;;;;2.63;1.63;;;11.50;99.90;;;;;;4148525;28;19960;-75
2023/10/25 00:05:35;;;;;;;3.03;1.70;;;11.40;99.90;;;;;;4144802;28;20117;-75
2023/10/25 00:07:35;;;;;;;6.38;1.88;;;11.50;99.90;;;;;;4144340;28;20032;-75
2023/10/25 00:09:36;;;;;;;3.28;1.60;;;11.50;99.90;;;;;;4145455;28;20054;-75
2023/10/25 00:11:37;;;;;;;3.10;1.85;;;11.50;99.90;;;;;;4151352;28;20112;-73
2023/10/25 00:13:37;;;;;;;2.03;1.52;;;11.50;99.90;;;;;;4144402;28;20049;-74
2023/10/25 00:15:38;;;;;;;2.85;1.65;;;11.40;99.90;;;;;;4149341;28;20367;-74
2023/10/25 00:17:38;;;;;;;3.03;1.60;;;11.40;99.90;;;;;;4144988;28;20049;-74
2023/10/25 00:19:39;;;;;;;4.10;1.63;;;11.40;99.90;;;;;;4144526;28;20048;-74
2023/10/25 00:21:40;;;;;;;3.60;1.80;;;11.40;99.90;;;;;;4143567;28;20453;-74
2023/10/25 00:23:40;;;;;;;4.75;1.55;;;11.40;99.90;;;;;;4144076;28;20038;-74
2023/10/25 00:25:41;;;;;;;3.30;1.60;;;11.40;99.90;;;;;;4141262;28;20067;-74
2023/10/25 00:27:41;;;;;;;3.50;1.33;;;11.40;99.90;;;;;;4146806;28;20037;-74
2023/10/25 00:29:42;;;;;;;3.15;1.50;;;11.40;99.90;;;;;;4155761;28;20545;-74
2023/10/25 00:31:44;;;;;;;4.17;1.30;;;11.40;99.90;;;;;;4152073;28;20128;-74
2023/10/25 00:33:44;;;;;;;2.22;1.45;;;11.40;99.90;;;;;;4159044;28;20033;-67
2023/10/25 00:35:45;;;;;;;4.10;1.90;;;11.40;99.90;;;;;;4153390;28;20063;-67
2023/10/25 00:37:45;;;;;;;2.60;1.42;;;11.30;99.90;;;;;;4154403;28;20042;-67
2023/10/25 00:39:46;;;;;;;3.30;1.48;;;11.40;99.90;;;;;;4145231;28;20065;-67
2023/10/25 00:41:47;;;;;;;3.88;1.40;;;11.30;99.90;;;;;;4141371;28;20068;-67
2023/10/25 00:43:47;;;;;;;4.72;1.45;;;11.30;99.90;;;;;;4144219;28;20049;-67
2023/10/25 00:46:11;;;;;;;5.38;1.50;;;11.30;99.90;;;;;;4140606;28;20046;-67
2023/10/25 00:48:12;;;;;;;5.72;1.55;;;11.20;99.90;;;;;;4146034;28;20026;-67
2023/10/25 00:50:17;;;;;;;2.63;1.33;;;11.20;99.90;;;;;;4142671;28;20034;-67
2023/10/25 00:52:18;;;;;;;3.80;1.52;;;11.20;99.90;;;;;;4147689;28;20693;-69
2023/10/25 00:54:19;;;;;;;3.58;1.40;;;11.20;99.90;;;;;;4151865;28;20522;-67
2023/10/25 00:56:29;;;;;;;5.47;1.85;;;11.20;99.90;;;;;;4143653;28;20042;-67
2023/10/25 00:58:31;;;;;;;2.33;1.33;;;11.20;99.90;;;;;;4136970;28;20490;-67
2023/10/25 01:00:32;;;;;;;2.22;1.10;;;11.20;99.90;;;;;;4153623;28;20402;-67
2023/10/25 01:02:33;;;;;;;3.47;1.60;;;11.20;99.90;;;;;;4143485;28;20084;-67
2023/10/25 01:04:34;;;;;;;3.65;1.40;;;11.20;99.90;;;;;;4150776;28;20144;-67
2023/10/25 01:06:34;;;;;;;2.63;1.20;;;11.20;99.90;;;;;;4156662;28;20117;-67
2023/10/25 01:08:35;;;;;;;3.78;1.50;;;11.20;99.90;;;;;;4152395;28;20034;-67
2023/10/25 01:10:36;;;;;;;4.57;1.13;;;11.20;99.90;;;;;;4142900;28;20030;-67
2023/10/25 01:12:37;;;;;;;3.20;1.42;;;11.20;99.90;;;;;;4142719;28;20490;-67
2023/10/25 01:14:37;;;;;;;5.55;1.65;;;11.10;99.90;;;;;;4152263;28;20052;-68
2023/10/25 01:16:38;;;;;;;3.60;1.40;;;11.10;99.90;;;;;;4144611;28;20387;-67
2023/10/25 01:18:38;;;;;;;2.72;1.20;;;11.10;99.90;;;;;;4150513;28;20045;-68
2023/10/25 01:20:39;;;;;;;1.75;1.30;;;11.10;99.90;;;;;;4142751;28;20482;-67
2023/10/25 01:22:40;;;;;;;4.38;1.08;;;11.00;99.90;;;;;;4143436;28;20054;-67
2023/10/25 01:24:40;;;;;;;4.75;1.50;;;11.10;99.90;;;;;;4143692;28;20061;-67
2023/10/25 01:26:41;;;;;;;3.80;1.27;;;11.00;99.90;;;;;;4141770;28;20121;-67
2023/10/25 01:28:42;;;;;;;2.38;1.25;;;11.10;99.90;;;;;;4143036;28;20057;-67
2023/10/25 01:30:42;;;;;;;6.00;1.17;;;11.00;99.90;;;;;;4141222;28;20438;-67
2023/10/25 01:32:43;;;;;;;4.43;1.50;;;11.00;99.90;;;;;;4143528;28;20133;-67
2023/10/25 01:34:43;;;;;;;3.60;1.25;;;11.00;99.90;;;;;;4142520;28;20121;-67
2023/10/25 01:36:44;;;;;;;3.05;1.70;;;10.90;99.90;;;;;;4142785;28;20525;-67
2023/10/25 01:38:45;;;;;;;5.55;1.40;;;10.90;99.90;;;;;;4152108;28;20041;-67
2023/10/25 01:40:45;;;;;;;4.18;1.30;;;10.90;99.90;;;;;;4141768;28;20042;-67
2023/10/25 01:42:46;;;;;;;1.90;1.48;;;11.00;99.90;;;;;;4143088;28;20049;-67
2023/10/25 01:44:47;;;;;;;5.18;1.33;;;10.80;99.90;;;;;;4154319;28;20069;-71
2023/10/25 01:46:47;;;;;;;3.95;1.75;;;10.90;99.90;;;;;;4143119;28;20053;-70
2023/10/25 01:48:48;;;;;;;3.05;1.70;;;10.80;99.90;;;;;;4154507;28;20117;-70
2023/10/25 01:50:52;;;;;;;3.92;1.40;;;10.80;99.90;;;;;;4158767;28;20033;-71
2023/10/25 01:52:53;;;;;;;3.88;1.95;;;10.80;99.90;;;;;;4151617;28;20042;-71
2023/10/25 01:54:53;;;;;;;3.67;1.95;;;10.80;99.90;;;;;;4144304;28;20088;-71
2023/10/25 01:56:54;;;;;;;2.20;1.40;;;10.80;99.90;;;;;;4147214;28;20045;-70
2023/10/25 01:58:54;;;;;;;4.50;2.17;;;10.80;99.90;;;;;;4146833;28;20034;-71
2023/10/25 02:00:55;;;;;;;3.78;1.75;;;10.80;99.90;;;;;;4150351;28;20034;-71
2023/10/25 02:02:55;;;;;;;2.88;1.70;;;10.80;99.90;;;;;;4145417;28;20042;-71
2023/10/25 02:04:56;;;;;;;2.70;1.35;;;10.70;99.90;;;;;;4154955;28;20132;-70
2023/10/25 02:06:56;;;;;;;5.13;1.35;;;10.70;99.90;;;;;;4150734;28;20095;-71
2023/10/25 02:08:57;;;;;;;4.50;2.08;;;10.70;99.90;;;;;;4146585;28;20042;-71
2023/10/25 02:10:58;;;;;;;3.30;1.45;;;10.70;99.90;;;;;;4144686;28;20411;-70
2023/10/25 02:12:58;;;;;;;3.10;1.55;;;10.70;99.90;;;;;;4145363;28;20046;-70
2023/10/25 02:14:59;;;;;;;5.43;1.58;;;10.70;99.90;;;;;;4145916;28;20037;-70
2023/10/25 02:16:59;;;;;;;3.33;1.55;;;10.60;99.90;;;;;;4145940;28;20037;-71
2023/10/25 02:19:00;;;;;;;5.85;2.03;;;10.60;99.90;;;;;;4145814;28;20101;-71
2023/10/25 02:21:01;;;;;;;4.40;1.77;;;10.50;99.90;;;;;;4143694;28;20041;-70
2023/10/25 02:23:01;;;;;;;3.65;1.90;;;10.50;99.90;;;;;;4144108;28;20042;-71
2023/10/25 02:25:02;;;;;;;6.45;2.08;;;10.60;99.90;;;;;;4146869;28;20038;-71
2023/10/25 02:27:03;;;;;;;3.13;1.67;;;10.50;99.90;;;;;;4144628;28;20037;-71
2023/10/25 02:29:04;;;;;;;4.57;2.15;;;10.40;99.90;;;;;;4138530;28;20039;-71
2023/10/25 02:31:04;;;;;;;5.85;2.08;;;10.50;99.90;;;;;;4127217;28;20034;-71
2023/10/25 02:33:05;;;;;;;3.72;2.20;;;10.40;99.90;;;;;;4129427;28;20038;-71
2023/10/25 02:35:06;;;;;;;4.85;2.17;;;10.40;99.90;;;;;;4130277;28;20105;-72
2023/10/25 02:37:06;;;;;;;4.65;1.70;;;10.40;99.90;;;;;;4126880;28;20034;-71
2023/10/25 02:39:08;;;;;;;7.00;2.00;;;10.40;99.90;;;;;;4137279;28;20056;-71
2023/10/25 02:41:09;;;;;;;2.97;2.05;;;10.40;99.90;;;;;;4138571;28;20053;-70
2023/10/25 02:43:09;;;;;;;7.78;2.35;;;10.40;99.90;;;;;;4131376;28;20046;-71
2023/10/25 02:45:10;;;;;;;7.28;2.67;;;10.40;99.90;;;;;;4127530;28;20027;-71
2023/10/25 02:47:11;;;;;;;3.80;2.25;;;10.30;99.90;;;;;;4127352;28;20038;-70
2023/10/25 02:49:11;;;;;;;5.40;2.40;;;10.30;99.90;;;;;;4128430;28;20432;-71
2023/10/25 02:51:12;;;;;;;4.35;2.45;;;10.30;99.90;;;;;;4129457;28;20114;-70
2023/10/25 02:53:12;;;;;;;6.50;2.88;;;10.30;99.90;;;;;;4136570;28;20116;-72
2023/10/25 02:55:16;;;;;;;5.45;3.00;;;10.30;99.90;;;;;;4129318;28;20119;-84
2023/10/25 02:57:17;;;;;;;5.30;2.95;;;10.30;99.90;;;;;;4132177;28;20458;-83
2023/10/25 02:59:18;;;;;;;4.38;2.30;;;10.20;99.90;;;;;;4129082;28;20043;-83
2023/10/25 03:01:22;;;;;;;5.35;2.40;;;10.30;99.90;;;;;;4123232;28;20046;-80
2023/10/25 03:03:24;;;;;;;4.63;2.70;;;10.30;99.90;;;;;;4129064;28;20122;-82
2023/10/25 03:05:24;;;;;;;4.53;2.75;;;10.30;99.90;;;;;;4140545;28;20513;-83
2023/10/25 03:07:25;;;;;;;6.38;2.80;;;10.30;99.90;;;;;;4127836;28;20101;-83
2023/10/25 03:09:25;;;;;;;7.78;2.95;;;10.30;99.90;;;;;;4125587;28;20041;-83
2023/10/25 03:11:26;;;;;;;5.57;2.85;;;10.30;99.90;;;;;;4126647;28;20042;-83
2023/10/25 03:13:26;;;;;;;3.88;2.58;;;10.30;99.90;;;;;;4130085;28;20479;-83
2023/10/25 03:15:27;;;;;;;5.60;2.88;;;10.30;99.90;;;;;;4126912;28;21274;-83
2023/10/25 03:17:30;;;;;;;6.50;2.92;;;10.30;99.90;;;;;;4128324;28;20034;-83
2023/10/25 03:19:31;;;;;;;5.10;2.88;;;10.30;99.90;;;;;;4141003;28;20088;-83
2023/10/25 03:21:32;;;;;;;7.18;2.70;;;10.30;99.90;;;;;;4130190;28;20419;-83
2023/10/25 03:23:32;;;;;;;4.30;2.65;;;10.30;99.90;;;;;;4137915;28;20046;-83
2023/10/25 03:25:33;;;;;;;6.63;3.47;;;10.40;99.90;;;;;;4133163;28;20049;-83
2023/10/25 03:27:34;;;;;;;3.92;2.80;;;10.30;99.90;;;;;;4130789;28;20037;-83
2023/10/25 03:29:36;;;;;;;6.22;3.53;;;10.40;99.90;;;;;;4144736;28;20054;-83
2023/10/25 03:31:38;;;;;;;4.60;3.03;;;10.40;99.90;;;;;;4129726;28;20454;-83
2023/10/25 03:33:38;;;;;;;4.60;2.70;;;10.40;99.90;;;;;;4127504;28;20121;-83
2023/10/25 03:35:39;;;;;;;6.70;3.25;;;10.40;99.90;;;;;;4126776;28;20042;-84
2023/10/25 03:37:40;;;;;;;6.78;2.70;;;10.40;99.90;;;;;;4130800;28;20030;-80
2023/10/25 03:39:40;;;;;;;3.40;2.42;;;10.40;99.90;;;;;;4140960;28;20033;-83
2023/10/25 03:41:42;;;;;;;3.58;2.65;;;10.40;99.90;;;;;;4126418;28;20042;-82
2023/10/25 03:43:43;;;;;;;5.43;2.75;;;10.40;99.90;;;;;;4132130;28;20046;-83
2023/10/25 03:45:44;;;;;;;5.03;2.60;;;10.40;99.90;;;;;;4136501;28;20035;-83
2023/10/25 03:47:44;;;;;;;6.72;3.10;;;10.40;99.90;;;;;;4127801;28;20046;-83
2023/10/25 03:49:45;;;;;;;5.00;2.45;;;10.40;99.90;;;;;;4128498;28;20044;-82
2023/10/25 03:51:46;;;;;;;6.15;3.08;;;10.40;99.90;;;;;;4126565;28;20022;-83
2023/10/25 03:53:46;;;;;;;6.57;3.40;;;10.40;99.90;;;;;;4128150;28;20047;-84
2023/10/25 03:55:55;;;;;;;7.53;3.55;;;10.40;99.90;;;;;;4125200;28;20587;-83
2023/10/25 03:57:55;;;;;;;8.85;3.30;;;10.40;99.90;;;;;;4128779;28;20120;-83
2023/10/25 03:59:56;;;;;;;5.93;3.08;;;10.40;99.90;;;;;;4128100;28;20442;-83
2023/10/25 04:01:57;;;;;;;6.47;3.30;;;10.40;99.90;;;;;;4134022;28;20390;-83
2023/10/25 04:03:58;;;;;;;4.28;3.05;;;10.50;99.90;;;;;;4128419;28;20051;-83
2023/10/25 04:05:59;;;;;;;4.25;2.92;;;10.50;99.90;;;;;;4126747;28;20045;-83
2023/10/25 04:07:59;;;;;;;6.68;3.30;;;10.50;99.90;;;;;;4113090;28;20046;-83
2023/10/25 04:10:01;;;;;;;7.20;3.40;;;10.50;99.90;;;;;;4127910;28;20046;-83
2023/10/25 04:12:02;;;;;;;6.35;3.38;;;10.50;99.90;;;;;;4131618;28;20038;-84
2023/10/25 04:14:02;;;;;;;5.68;2.78;;;10.40;99.90;;;;;;4122009;28;20062;-83
2023/10/25 04:16:05;;;;;;;5.72;2.78;;;10.40;99.90;;;;;;4119231;28;20522;-83
2023/10/25 04:18:09;;;;;;;8.30;3.33;;;10.50;99.90;;;;;;4131351;28;20038;-83
2023/10/25 04:20:11;;;;;;;5.72;3.15;;;10.50;99.90;;;;;;4131452;28;20045;-83
2023/10/25 04:22:13;;;;;;;4.97;2.67;;;10.50;99.90;;;;;;4127150;28;20472;-83
2023/10/25 04:24:14;;;;;;;6.65;3.20;;;10.50;99.90;;;;;;4124429;28;20086;-83
2023/10/25 04:26:15;;;;;;;5.03;2.35;;;10.50;99.90;;;;;;4125958;28;20038;-83
2023/10/25 04:28:17;;;;;;;5.38;2.65;;;10.50;99.90;;;;;;4128541;28;20357;-83
2023/10/25 04:30:17;;;;;;;6.77;3.23;;;10.50;99.90;;;;;;4135539;28;20114;-83
2023/10/25 04:32:18;;;;;;;6.15;3.28;;;10.50;99.90;;;;;;4132260;28;20627;-85
2023/10/25 04:34:18;;;;;;;6.20;3.10;;;10.50;99.90;;;;;;4143831;28;20034;-80
2023/10/25 04:36:19;;;;;;;4.55;2.75;;;10.50;99.90;;;;;;4123228;28;20034;-82
2023/10/25 04:38:20;;;;;;;5.82;2.88;;;10.50;99.90;;;;;;4128078;28;20053;-82
2023/10/25 04:40:20;;;;;;;5.00;2.78;;;10.50;99.90;;;;;;4126896;28;20114;-83
2023/10/25 04:42:21;;;;;;;6.53;2.70;;;10.50;99.90;;;;;;4116018;28;20081;-82
2023/10/25 04:44:22;;;;;;;6.78;2.78;;;10.60;99.90;;;;;;4135563;28;20030;-82
2023/10/25 04:46:22;;;;;;;6.28;2.90;;;10.50;99.90;;;;;;4130603;28;20070;-82
2023/10/25 04:48:23;;;;;;;3.75;2.55;;;10.60;99.90;;;;;;4126946;28;20136;-82
2023/10/25 04:50:23;;;;;;;6.75;2.55;;;10.50;99.90;;;;;;4130721;28;20041;-81
2023/10/25 04:52:24;;;;;;;4.25;2.65;;;10.60;99.90;;;;;;4143379;28;20450;-82
2023/10/25 04:54:24;;;;;;;5.90;2.90;;;10.60;99.90;;;;;;4110217;28;20364;-82
2023/10/25 04:56:25;;;;;;;5.93;2.50;;;10.60;99.90;;;;;;4132618;28;20030;-83
2023/10/25 04:58:27;;;;;;;5.90;2.80;;;10.50;99.90;;;;;;4136667;28;20034;-82
2023/10/25 05:00:28;;;;;;;4.43;2.78;;;10.50;99.90;;;;;;4119459;28;20491;-82
2023/10/25 05:02:28;;;;;;;6.30;2.88;;;10.50;99.90;;;;;;4127805;28;20501;-82
2023/10/25 05:04:30;;;;;;;8.88;2.80;;;10.50;99.90;;;;;;4129866;28;20050;-83
2023/10/25 05:06:31;;;;;;;4.50;2.60;;;10.50;99.90;;;;;;4135163;28;20566;-82
2023/10/25 05:08:32;;;;;;;3.55;2.33;;;10.50;99.90;;;;;;4140612;28;20090;-82
2023/10/25 05:10:33;;;;;;;6.32;3.25;;;10.50;99.90;;;;;;4137324;28;20054;-82
2023/10/25 05:12:38;;;;;;;6.78;3.15;;;10.50;99.90;;;;;;4134907;28;20105;-82
2023/10/25 05:14:39;;;;;;;4.57;2.65;;;10.40;99.90;;;;;;4138488;28;20514;-72
2023/10/25 05:16:40;;;;;;;5.70;2.58;;;10.40;99.90;;;;;;4134177;28;20121;-72
2023/10/25 05:18:41;;;;;;;6.22;2.60;;;10.40;99.90;;;;;;4138213;28;20073;-72
2023/10/25 05:20:42;;;;;;;6.53;2.80;;;10.40;99.90;;;;;;4126252;28;20096;-72
2023/10/25 05:22:49;;;;;;;7.35;2.70;;;10.50;99.90;;;;;;4130060;28;20442;-70
2023/10/25 05:24:50;;;;;;;9.80;2.40;;;10.40;99.90;;;;;;4129490;28;20550;-72
2023/10/25 05:26:51;;;;;;;7.20;2.88;;;10.40;99.90;;;;;;4106445;28;20125;-70
2023/10/25 05:28:52;;;;;;;6.63;2.45;;;10.50;99.90;;;;;;4134782;28;20148;-70
2023/10/25 05:30:57;;;;;;;4.53;2.67;;;10.50;99.90;;;;;;4100746;28;20035;-70
2023/10/25 05:33:02;;;;;;;6.95;2.83;;;10.50;99.90;;;;;;4126602;28;20065;-70
2023/10/25 05:35:05;;;;;;;4.95;2.58;;;10.50;99.90;;;;;;4126085;28;20065;-70
2023/10/25 05:37:06;;;;;;;5.60;3.03;;;10.50;99.90;;;;;;4125207;28;20470;-70
2023/10/25 05:39:07;;;;;;;8.32;3.20;;;10.50;99.90;;;;;;4124235;28;20029;-71
2023/10/25 05:41:10;;;;;;;4.28;2.72;;;10.50;99.90;;;;;;4124836;28;20045;-70
2023/10/25 05:43:14;;;;;;;6.38;3.53;;;10.50;99.90;;;;;;4130157;28;20046;-70
2023/10/25 05:45:15;;;;;;;8.05;3.53;;;10.60;99.90;;;;;;4122935;28;20392;-70
2023/10/25 05:47:16;;;;;;;10.07;3.60;;;10.50;99.90;;;;;;4122930;28;20058;-71
2023/10/25 05:49:17;;;;;;;6.75;3.75;;;10.50;99.90;;;;;;4125772;28;20042;-70
2023/10/25 05:51:18;;;;;;;7.03;2.88;;;10.50;99.90;;;;;;4125697;28;20723;-70
2023/10/25 05:53:19;;;;;;;5.80;2.55;;;10.50;99.90;;;;;;4124579;28;20049;-70
2023/10/25 05:55:20;;;;;;;6.43;2.88;;;10.50;99.90;;;;;;4124640;28;20562;-70
2023/10/25 05:57:21;;;;;;;6.43;2.70;;;10.50;99.90;;;;;;4123738;28;20050;-72
2023/10/25 05:59:21;;;;;;;5.05;2.65;;;10.50;99.90;;;;;;4126763;28;20042;-71
2023/10/25 06:01:30;;;;;;;6.35;2.60;;;10.40;99.90;;;;;;4124672;28;20538;-71
2023/10/25 06:03:31;;;;;;;6.57;2.70;;;10.40;99.90;;;;;;4126256;28;20454;-70
2023/10/25 06:05:36;;;;;;;5.57;2.47;;;10.50;99.90;;;;;;4124833;28;20042;-70
2023/10/25 06:07:37;;;;;;;9.52;3.33;;;10.50;99.90;;;;;;4125789;28;20031;-70
2023/10/25 06:09:38;;;;;;;4.20;2.50;;;10.50;99.90;;;;;;4127030;28;20065;-70
2023/10/25 06:11:40;;;;;;;6.80;2.50;;;10.40;99.90;;;;;;4124455;28;20117;-70
2023/10/25 06:13:41;;;;;;;8.65;2.83;;;10.40;99.90;;;;;;4109177;28;20115;-70
2023/10/25 06:15:42;;;;;;;7.50;3.38;;;10.40;99.90;;;;;;4121202;28;20038;-71
2023/10/25 06:17:43;;;;;;;6.00;3.17;;;10.40;99.90;;;;;;4126823;28;20125;-71
2023/10/25 06:19:43;;;;;;;5.80;3.28;;;10.40;99.90;;;;;;4126082;28;20526;-71
2023/10/25 06:21:44;;;;;;;5.22;2.60;;;10.40;99.90;;;;;;4125362;28;20045;-71
2023/10/25 06:23:44;;;;;;;6.72;2.55;;;10.40;99.90;;;;;;4126290;28;20049;-73
2023/10/25 06:25:45;;;;;;;4.68;2.50;;;10.40;99.90;;;;;;4123499;28;20034;-70
2023/10/25 06:27:45;;;;;;;4.90;2.63;;;10.40;99.90;;;;;;4124930;28;20121;-70
2023/10/25 06:29:46;;;;;;;5.35;3.05;;;10.50;99.90;;;;;;4138078;28;20148;-70
2023/10/25 06:31:50;;;;;;;5.88;2.55;;;10.50;99.90;;;;;;4139327;28;20049;-70
2023/10/25 06:33:51;;;;;;;4.93;2.83;;;10.50;99.90;;;;;;4135910;28;20053;-70
2023/10/25 06:35:52;;;;;;;7.68;2.63;;;10.50;99.90;;;;;;4141055;28;20022;-70
2023/10/25 06:37:53;;;;;;;6.60;2.85;;;10.50;99.90;;;;;;4142539;28;20046;-70
2023/10/25 06:39:54;;;;;;;6.38;2.90;;;10.50;99.90;;;;;;4142507;28;20040;-70
2023/10/25 06:41:55;;;;;;;5.40;2.83;;;10.50;99.90;;;;;;4140704;28;20038;-69
2023/10/25 06:43:56;;;;;;;6.30;2.53;;;10.50;99.90;;;;;;4138565;28;20104;-69
2023/10/25 06:45:58;;;;;;;4.53;2.90;;;10.50;99.90;;;;;;4140976;28;20546;-69
2023/10/25 06:48:00;;;;;;;4.57;2.55;;;10.50;99.90;;;;;;4141673;28;20034;-69
2023/10/25 06:50:01;;;;;;;6.95;3.13;;;10.50;99.90;;;;;;4141883;28;20034;-69
2023/10/25 06:52:02;;;;;;;5.53;2.70;;;10.50;99.90;;;;;;4141079;28;20095;-69
2023/10/25 06:54:03;;;;;;;4.30;2.42;;;10.60;99.90;;;;;;4143679;28;20048;-69
2023/10/25 06:56:05;;;;;;;5.10;2.70;;;10.50;99.90;;;;;;4139442;28;20081;-69
2023/10/25 06:58:05;;;;;;;4.85;2.70;;;10.60;99.90;;;;;;4142534;28;20030;-69
2023/10/25 07:00:09;;;;;;;4.95;2.80;;;10.60;99.90;;;;;;4139510;28;20521;-69
2023/10/25 07:02:31;;;;;;;6.15;2.90;;;10.60;99.90;;;;;;4141906;28;20045;-69
2023/10/25 07:04:33;;;;;;;6.05;3.20;;;10.60;99.90;;;;;;4141808;28;20104;-69
2023/10/25 07:06:35;;;;;;;6.32;3.08;;;10.50;99.90;;;;;;4140642;28;20049;-69
2023/10/25 07:08:35;;;;;;;6.65;2.75;;;10.60;99.90;;;;;;4141907;28;20038;-69
2023/10/25 07:10:36;;;;;;;5.80;2.67;;;10.60;99.90;;;;;;4139415;28;20399;-69
2023/10/25 07:12:38;;;;;;;5.80;2.60;;;10.60;99.90;;;;;;4141989;28;20034;-69
2023/10/25 07:14:38;;;;;;;4.70;2.70;;;10.60;99.90;;;;;;4140436;28;20034;-69
2023/10/25 07:16:40;;;;;;;5.63;3.28;;;10.60;99.90;;;;;;4139214;28;20494;-69
2023/10/25 07:18:41;;;;;;;3.17;2.27;;;10.70;99.90;;;;;;4141318;28;20037;-69
2023/10/25 07:20:42;;;;;;;5.85;2.50;;;10.60;99.90;;;;;;4139891;28;20042;-69
2023/10/25 07:22:42;;;;;;;5.40;2.78;;;10.60;99.90;;;;;;4141128;28;20453;-69
2023/10/25 07:24:43;;;;;;;5.20;2.80;;;10.60;99.90;;;;;;4139968;28;20124;-71
2023/10/25 07:26:43;;;;;;;5.15;2.85;;;10.70;99.90;;;;;;4137897;28;20107;-70
2023/10/25 07:28:44;;;;;;;4.72;2.70;;;10.70;99.90;;;;;;4139861;28;20057;-69
2023/10/25 07:30:44;;;;;;;8.15;2.53;;;10.70;99.90;;;;;;4128794;28;20034;-69
2023/10/25 07:32:45;;;;;;;4.97;2.75;;;10.70;99.90;;;;;;4130215;28;20070;-69
2023/10/25 07:34:46;;;;;;;7.70;3.30;;;10.70;99.90;;;;;;4127982;28;20038;-70
2023/10/25 07:36:46;;;;;;;6.63;3.15;;;10.70;99.90;;;;;;4129492;28;20081;-70
2023/10/25 07:38:47;;;;;;;8.70;3.65;;;10.70;99.90;;;;;;4128383;28;20361;-70
2023/10/25 07:40:49;;;;;;;7.22;3.00;;;10.70;99.90;;;;;;4127588;28;20066;-70
2023/10/25 07:42:50;;;;;;;5.88;3.13;;;10.70;99.90;;;;;;4114001;28;20062;-70
2023/10/25 07:44:50;;;;;;;11.82;3.67;;;10.70;99.90;;;;;;4109959;28;20106;-70
2023/10/25 07:46:51;;;;;;;5.40;2.75;;;10.70;99.90;;;;;;4128818;28;20034;-71
2023/10/25 07:48:52;;;;;;;7.80;3.08;;;10.70;99.90;;;;;;4129588;28;20053;-70
2023/10/25 07:50:52;;;;;;;5.85;3.20;;;10.80;99.90;;;;;;4128963;28;20034;-70
2023/10/25 07:52:53;;;;;;;7.05;3.38;;;10.80;99.90;;;;;;4132440;28;20100;-70
2023/10/25 07:54:53;;;;;;;5.90;2.70;;;10.80;99.90;;;;;;4112452;28;20507;-70
2023/10/25 07:56:54;;;;;;;6.18;2.90;;;10.80;99.90;;;;;;4127013;28;20725;-70
2023/10/25 07:58:55;;;;;;;5.15;2.67;;;10.80;99.90;;;;;;4111307;28;20455;-70
2023/10/25 08:00:55;;;;;;;6.80;2.53;;;10.80;99.90;;;;;;4126203;28;20038;-70
2023/10/25 08:02:56;;;;;;;6.30;2.80;;;10.90;99.90;;;;;;4128982;28;20113;-70
2023/10/25 08:04:56;;;;;;;5.15;2.70;;;10.90;99.90;;;;;;4131095;28;20034;-70
2023/10/25 08:06:57;;;;;;;2.90;2.00;;;10.90;99.90;;;;;;4130712;28;20042;-70
2023/10/25 08:08:58;;;;;;;7.43;2.40;;;10.90;99.90;;;;;;4130427;28;20072;-70
2023/10/25 08:11:04;;;;;;;5.80;2.25;;;11.00;99.90;;;;;;4127935;28;20037;-70
2023/10/25 08:13:05;;;;;;;5.60;2.47;;;11.00;99.90;;;;;;4132041;28;20069;-69
2023/10/25 08:15:06;;;;;;;3.75;2.03;;;11.00;99.90;;;;;;4127220;28;20081;-70
2023/10/25 08:17:06;;;;;;;2.78;1.77;;;11.10;99.90;;;;;;4131953;28;20036;-70
2023/10/25 08:19:10;;;;;;;4.68;2.35;;;11.10;99.90;;;;;;4131962;28;20457;-70
2023/10/25 08:21:13;;;;;;;4.60;2.00;;;11.10;99.90;;;;;;4130861;28;20042;-69
2023/10/25 08:23:14;;;;;;;7.22;1.83;;;11.10;99.90;;;;;;4133412;28;20508;-70
2023/10/25 08:25:14;;;;;;;3.55;1.50;;;11.10;99.90;;;;;;4128160;28;20100;-70
2023/10/25 08:27:15;;;;;;;3.33;1.60;;;11.10;99.90;;;;;;4130887;28;20034;-70
2023/10/25 08:29:15;;;;;;;6.43;2.10;;;11.20;99.90;;;;;;4137044;28;20046;-70
2023/10/25 08:31:18;;;;;;;7.82;2.15;;;11.20;99.90;;;;;;4137942;28;20426;-70
2023/10/25 08:33:18;;;;;;;;;;;11.20;99.90;;;;;;4155578;28;20409;-70
2023/10/25 08:35:19;;;;;;;4.68;2.58;;;11.20;99.90;;;;;;4139290;28;20024;-70
2023/10/25 08:37:20;;;;;;;8.32;2.58;;;11.20;99.90;;;;;;4140086;28;20042;-70
2023/10/25 08:39:23;;;;;;;5.53;2.17;;;11.20;99.90;;;;;;4140851;28;20643;-70
2023/10/25 08:41:25;;;;;;;3.13;1.58;;;11.30;99.90;;;;;;4138004;28;20053;-70
2023/10/25 08:43:29;;;;;;;3.55;1.38;;;11.30;99.90;;;;;;4139741;28;20406;-74
2023/10/25 08:45:34;;;;;;;3.83;1.30;;;11.30;99.90;;;;;;4138277;28;20060;-68
2023/10/25 08:47:35;;;;;;;5.18;1.45;;;11.40;99.90;;;;;;4140028;28;20132;-68
2023/10/25 08:49:37;;;;;;;3.80;1.63;;;11.40;99.90;;;;;;4140054;28;20065;-68
2023/10/25 08:51:43;;;;;;;4.28;1.40;;;11.40;99.90;;;;;;4138321;28;20469;-68
2023/10/25 08:53:45;;;;;;;4.68;1.67;;;11.50;99.90;;;;;;4139143;28;20293;-68
2023/10/25 08:55:46;;;;;;;5.35;1.45;;;11.50;99.90;;;;;;4137802;28;20034;-68
2023/10/25 08:57:54;;;;;;;7.47;1.42;;;11.50;99.90;;;;;;4140375;28;20037;-68
2023/10/25 08:59:54;;;;;;;4.18;1.58;;;11.50;99.90;;;;;;4138987;28;20513;-68
2023/10/25 09:01:56;;;;;;;3.00;1.45;;;11.60;99.90;;;;;;4136892;28;20037;-68
2023/10/25 09:03:56;;;;;;;3.45;1.73;;;11.60;99.90;;;;;;4139173;28;20050;-68
2023/10/25 09:05:58;;;;;;;5.30;2.15;;;11.70;99.90;;;;;;4138931;28;20135;-68
2023/10/25 09:08:13;;;;;;;5.18;2.22;;;11.70;99.90;;;;;;4139590;28;20484;-68
2023/10/25 09:10:19;;;;;;;4.95;2.22;;;11.70;99.90;;;;;;4136044;28;20053;-68
2023/10/25 09:12:20;;;;;;;4.15;2.38;;;11.80;99.90;;;;;;4143624;28;20038;-68
2023/10/25 09:14:21;;;;;;;4.47;2.30;;;11.80;99.90;;;;;;4143818;28;20088;-68
2023/10/25 09:16:26;;;;;;;4.50;1.95;;;11.80;99.90;;;;;;4139159;28;20045;-69
2023/10/25 09:18:27;;;;;;;3.85;1.98;;;11.80;99.90;;;;;;4143209;28;20457;-68
2023/10/25 09:20:28;;;;;;;4.88;1.70;;;11.90;99.90;;;;;;4139574;28;20046;-68
2023/10/25 09:22:30;;;;;;;5.50;1.73;;;11.90;99.90;;;;;;4141706;28;20034;-68
2023/10/25 09:24:47;;;;;;;8.20;2.55;;;11.90;99.90;;;;;;4141193;28;20512;-68
2023/10/25 09:26:48;;;;;;;4.18;1.63;;;11.90;99.90;;;;;;4139426;28;20052;-68
2023/10/25 09:28:53;;;;;;;4.03;2.05;;;11.90;99.90;;;;;;4142718;28;20052;-68
2023/10/25 09:30:55;;;;;;;3.40;1.88;;;11.90;99.90;;;;;;4139697;28;20117;-68
2023/10/25 09:32:57;;;;;;;4.50;1.98;;;11.90;99.90;;;;;;4143337;28;20038;-68
2023/10/25 09:34:57;;;;;;;3.50;1.55;;;11.90;99.90;;;;;;4142191;28;20041;-68
2023/10/25 09:37:00;;;;;;;4.97;1.30;;;11.90;99.90;;;;;;4142738;28;20044;-68
2023/10/25 09:39:01;;;;;;;;;;;11.90;99.90;;;;;;4144726;28;20038;-68
2023/10/25 09:41:03;;;;;;;2.25;1.20;;;12.00;99.90;;;;;;4142124;28;19910;-68
2023/10/25 09:43:13;;;;;;;4.38;1.20;;;11.90;99.90;;;;;;4142506;28;20149;-68
2023/10/25 09:45:19;;;;;;;3.72;1.27;;;11.90;99.90;;;;;;4141744;28;20357;-68
2023/10/25 09:47:25;;;;;;;2.92;1.30;;;12.00;99.90;;;;;;4141944;28;20046;-68
2023/10/25 09:49:30;;;;;;;4.53;1.30;;;12.00;99.90;;;;;;4143240;28;20442;-69
2023/10/25 09:51:38;;;;;;;2.83;1.20;;;12.00;99.90;;;;;;4142128;28;20034;-69
2023/10/25 09:53:49;;;;;;;6.68;1.75;;;11.90;99.90;;;;;;4143402;28;20088;-74
2023/10/25 09:55:56;;;;;;;2.92;1.23;;;12.00;99.90;;;;;;4138173;28;20065;-69
2023/10/25 09:57:58;;;;;;;5.10;1.10;;;12.00;99.90;;;;;;4144300;28;20153;-69
2023/10/25 10:00:00;;;;;;;2.08;1.05;;;12.00;99.90;;;;;;4142419;28;20478;-69
2023/10/25 10:02:04;;;;;;;2.40;1.00;;;12.00;99.90;;;;;;4140493;28;20053;-69
2023/10/25 10:04:22;;;;;;;2.92;1.20;;;12.00;99.90;;;;;;4141175;28;20049;-69
2023/10/25 10:06:59;;;;;;;3.97;1.23;;;12.00;99.90;;;;;;4140017;28;20103;-69
2023/10/25 10:09:13;;;;;;;6.00;1.40;;;12.10;99.90;;;;;;4123397;28;20119;-70
2023/10/25 10:11:17;;;;;;;4.15;1.35;;;12.10;99.90;;;;;;4141800;28;20038;-69
2023/10/25 10:13:20;;;;;;;3.33;1.48;;;12.10;99.90;;;;;;4142617;28;20041;-70
2023/10/25 10:16:00;;;;;;;3.33;1.60;;;12.10;99.90;;;;;;4141021;28;20052;-70
2023/10/25 10:18:02;;;;;;;4.43;1.92;;;12.10;99.90;;;;;;4140978;28;20478;-70
2023/10/25 10:20:06;;;;;;;5.37;2.70;;;12.10;99.90;;;;;;4143371;28;20109;-70
2023/10/25 10:22:13;;;;;;;6.55;3.03;;;12.20;99.90;;;;;;4141165;28;20308;-69
2023/10/25 10:24:44;;;;;;;7.97;3.03;;;12.10;99.90;;;;;;4143805;28;20050;-69
2023/10/25 10:26:47;;;;;;;7.93;3.13;;;12.20;99.90;;;;;;4143505;28;20502;-69
2023/10/25 10:28:47;;;;;;;4.43;2.20;;;12.20;99.90;;;;;;4138343;28;20077;-70
2023/10/25 10:30:48;;;;;;;3.70;2.00;;;12.20;99.90;;;;;;4111083;28;20043;-69
2023/10/25 10:32:56;;;;;;;4.22;1.75;;;12.20;99.90;;;;;;4132704;28;20034;-70
2023/10/25 10:34:56;;;;;;;5.43;1.70;;;12.20;99.90;;;;;;4116600;28;20043;-70
2023/10/25 10:37:08;;;;;;;3.00;1.30;;;12.30;99.90;;;;;;4130279;28;20374;-70